Time;durP1;ratioP1;P1;durP2;ratioP2;P2;SDS_P1;SDS_P2;PMS_P1;PMS_P2;Temp;Humidity;BMP_temperature;BMP_pressure;BME280_temperature;BME280_humidity;BME280_pressure;Samples;Min_cycle;Max_cycle;Signal;HPM_P1;HPM_P2
2022/07/12 00:02:02;;;;;;;2.70;2.50;;;;;;;;;;5091817;28;24410;-47
2022/07/12 00:04:27;;;;;;;3.70;2.40;;;;;;;;;;5102380;28;24428;-47
2022/07/12 00:06:52;;;;;;;2.70;2.50;;;;;;;;;;5093313;28;24417;-47
2022/07/12 00:09:17;;;;;;;2.90;2.40;;;;;;;;;;5088702;28;24433;-47
2022/07/12 00:11:42;;;;;;;2.70;2.50;;;;;;;;;;5098261;28;24451;-47
2022/07/12 00:14:09;;;;;;;2.30;2.20;;;;;;;;;;5092149;28;24437;-46
2022/07/12 00:16:34;;;;;;;2.78;2.58;;;;;;;;;;5102796;28;24433;-46
2022/07/12 00:18:59;;;;;;;2.63;2.43;;;;;;;;;;5099950;28;24772;-46
2022/07/12 00:21:25;;;;;;;3.10;2.90;;;;;;;;;;5107601;28;24475;-46
2022/07/12 00:23:50;;;;;;;3.40;3.10;;;;;;;;;;5094678;28;24429;-46
2022/07/12 00:26:15;;;;;;;2.80;2.60;;;;;;;;;;5096689;27;24445;-46
2022/07/12 00:28:40;;;;;;;2.97;2.67;;;;;;;;;;5097646;28;24422;-46
2022/07/12 00:31:05;;;;;;;3.30;3.00;;;;;;;;;;5095593;28;24977;-46
2022/07/12 00:33:30;;;;;;;3.00;2.80;;;;;;;;;;5098532;28;24959;-46
2022/07/12 00:35:55;;;;;;;3.03;2.73;;;;;;;;;;5105745;28;24441;-46
2022/07/12 00:38:21;;;;;;;2.70;2.50;;;;;;;;;;5093177;28;24948;-46
2022/07/12 00:40:46;;;;;;;2.72;2.53;;;;;;;;;;5098625;27;24534;-46
2022/07/12 00:43:11;;;;;;;3.30;3.00;;;;;;;;;;5106830;28;24513;-46
2022/07/12 00:45:36;;;;;;;2.80;2.60;;;;;;;;;;5090781;28;24437;-46
2022/07/12 00:48:02;;;;;;;3.10;2.80;;;;;;;;;;5092957;28;24445;-46
2022/07/12 00:50:27;;;;;;;3.10;2.90;;;;;;;;;;5088411;28;24461;-46
2022/07/12 00:52:53;;;;;;;3.50;2.90;;;;;;;;;;5086415;28;24426;-48
2022/07/12 00:55:19;;;;;;;2.92;2.72;;;;;;;;;;5102508;28;24420;-46
2022/07/12 00:57:44;;;;;;;3.15;2.95;;;;;;;;;;5097032;28;24414;-45
2022/07/12 01:00:10;;;;;;;3.00;2.80;;;;;;;;;;5096185;28;25230;-45
2022/07/12 01:02:36;;;;;;;3.57;3.27;;;;;;;;;;5088418;28;24804;-46
2022/07/12 01:05:03;;;;;;;3.20;3.00;;;;;;;;;;5088605;28;24510;-45
2022/07/12 01:07:28;;;;;;;3.05;2.85;;;;;;;;;;5098312;28;25012;-46
2022/07/12 01:09:54;;;;;;;3.27;2.97;;;;;;;;;;5094445;28;24429;-46
2022/07/12 01:12:20;;;;;;;3.10;2.90;;;;;;;;;;5105031;28;24414;-46
2022/07/12 01:14:45;;;;;;;3.58;3.03;;;;;;;;;;5100322;28;24931;-46
2022/07/12 01:17:12;;;;;;;3.40;3.10;;;;;;;;;;5096930;28;25132;-46
2022/07/12 01:19:38;;;;;;;2.90;2.70;;;;;;;;;;5104288;28;24410;-46
2022/07/12 01:22:05;;;;;;;3.00;2.80;;;;;;;;;;5098925;28;24429;-45
2022/07/12 01:24:30;;;;;;;2.80;2.60;;;;;;;;;;5104251;28;24420;-46
2022/07/12 01:26:55;;;;;;;3.00;2.80;;;;;;;;;;5091709;28;25031;-45
2022/07/12 01:29:21;;;;;;;3.00;2.70;;;;;;;;;;5091993;28;24421;-46
2022/07/12 01:31:46;;;;;;;2.63;2.43;;;;;;;;;;5100597;28;24425;-46
2022/07/12 01:34:12;;;;;;;2.92;2.63;;;;;;;;;;5091048;28;25098;-46
2022/07/12 01:36:38;;;;;;;3.07;2.87;;;;;;;;;;5096887;28;25002;-46
2022/07/12 01:39:04;;;;;;;3.00;2.50;;;;;;;;;;5096970;28;24414;-48
2022/07/12 01:41:30;;;;;;;2.92;2.40;;;;;;;;;;5098667;28;24436;-46
2022/07/12 01:43:56;;;;;;;4.57;2.70;;;;;;;;;;5094389;28;24422;-46
2022/07/12 01:46:21;;;;;;;2.50;2.30;;;;;;;;;;5096215;28;24421;-46
2022/07/12 01:48:46;;;;;;;2.50;2.30;;;;;;;;;;5100421;28;24445;-47
2022/07/12 01:51:11;;;;;;;2.20;2.10;;;;;;;;;;5094406;28;25269;-46
2022/07/12 01:53:36;;;;;;;2.40;2.20;;;;;;;;;;5088558;28;25090;-46
2022/07/12 01:56:02;;;;;;;2.60;2.40;;;;;;;;;;5099300;28;24413;-47
2022/07/12 01:58:27;;;;;;;2.60;2.40;;;;;;;;;;5099652;27;24445;-47
2022/07/12 02:00:53;;;;;;;3.03;2.20;;;;;;;;;;5097931;28;24413;-46
2022/07/12 02:03:19;;;;;;;2.40;2.20;;;;;;;;;;5084205;28;24426;-47
2022/07/12 02:05:44;;;;;;;2.70;2.50;;;;;;;;;;5099834;28;24453;-55
2022/07/12 02:08:10;;;;;;;2.60;2.40;;;;;;;;;;5105443;27;24482;-47
2022/07/12 02:10:35;;;;;;;2.60;2.40;;;;;;;;;;5104476;28;24418;-46
2022/07/12 02:13:03;;;;;;;2.60;2.40;;;;;;;;;;5095953;28;24596;-46
2022/07/12 02:15:28;;;;;;;2.67;2.47;;;;;;;;;;5095242;28;24448;-47
2022/07/12 02:17:53;;;;;;;3.07;2.63;;;;;;;;;;5088157;28;24978;-47
2022/07/12 02:20:18;;;;;;;2.70;2.50;;;;;;;;;;5093224;28;24414;-48
2022/07/12 02:22:44;;;;;;;2.50;2.30;;;;;;;;;;5094642;28;24429;-46
2022/07/12 02:25:09;;;;;;;2.50;2.30;;;;;;;;;;5098303;28;25309;-46
2022/07/12 02:27:34;;;;;;;2.60;2.40;;;;;;;;;;5100092;28;24468;-47
2022/07/12 02:29:59;;;;;;;2.90;2.70;;;;;;;;;;5103936;27;24425;-47
2022/07/12 02:32:24;;;;;;;2.80;2.30;;;;;;;;;;5101059;28;24845;-47
2022/07/12 02:34:49;;;;;;;3.33;2.50;;;;;;;;;;5103503;28;24480;-47
2022/07/12 02:37:14;;;;;;;2.40;2.20;;;;;;;;;;5093459;27;24421;-47
2022/07/12 02:39:40;;;;;;;2.80;2.47;;;;;;;;;;5106774;28;25090;-47
2022/07/12 02:42:05;;;;;;;2.13;1.92;;;;;;;;;;5096421;28;24460;-47
2022/07/12 02:44:30;;;;;;;2.10;1.90;;;;;;;;;;5094893;28;24426;-47
2022/07/12 02:46:55;;;;;;;2.43;2.23;;;;;;;;;;5090405;28;25349;-47
2022/07/12 02:49:20;;;;;;;2.60;2.20;;;;;;;;;;5090910;28;24417;-47
2022/07/12 02:51:45;;;;;;;2.40;2.20;;;;;;;;;;5102792;28;24485;-46
2022/07/12 02:54:11;;;;;;;2.22;2.00;;;;;;;;;;5109787;27;24520;-46
2022/07/12 02:56:36;;;;;;;2.50;2.30;;;;;;;;;;5100453;28;24487;-46
2022/07/12 02:59:01;;;;;;;2.20;2.10;;;;;;;;;;5098327;28;24421;-46
2022/07/12 03:01:26;;;;;;;2.28;2.13;;;;;;;;;;5094163;28;24525;-46
2022/07/12 03:03:51;;;;;;;2.20;2.00;;;;;;;;;;5090989;28;25231;-46
2022/07/12 03:06:16;;;;;;;3.70;2.40;;;;;;;;;;5092652;28;24418;-46
2022/07/12 03:08:42;;;;;;;2.95;2.60;;;;;;;;;;5091625;28;24428;-46
2022/07/12 03:11:07;;;;;;;2.30;2.10;;;;;;;;;;5096105;28;24967;-48
2022/07/12 03:13:32;;;;;;;2.77;2.20;;;;;;;;;;5105994;28;24760;-47
2022/07/12 03:15:59;;;;;;;2.20;2.00;;;;;;;;;;5095330;28;24482;-48
2022/07/12 03:18:25;;;;;;;1.92;1.83;;;;;;;;;;5091351;28;24418;-47
2022/07/12 03:20:50;;;;;;;2.30;2.10;;;;;;;;;;5097521;28;24768;-47
2022/07/12 03:23:15;;;;;;;2.20;2.10;;;;;;;;;;5107979;28;24505;-47
2022/07/12 03:25:40;;;;;;;2.90;2.40;;;;;;;;;;5099982;28;24421;-47
2022/07/12 03:28:05;;;;;;;2.30;2.10;;;;;;;;;;5103005;28;25059;-47
2022/07/12 03:30:30;;;;;;;2.80;2.60;;;;;;;;;;5098645;28;24926;-47
2022/07/12 03:32:56;;;;;;;2.58;2.38;;;;;;;;;;5090489;28;24418;-46
2022/07/12 03:35:21;;;;;;;2.80;2.60;;;;;;;;;;5094631;28;24421;-46
2022/07/12 03:37:47;;;;;;;3.28;3.08;;;;;;;;;;5097423;28;25024;-47
2022/07/12 03:40:13;;;;;;;2.72;2.53;;;;;;;;;;5099971;28;24434;-47
2022/07/12 03:42:39;;;;;;;3.58;3.28;;;;;;;;;;5101339;28;24410;-47
2022/07/12 03:45:04;;;;;;;2.70;2.40;;;;;;;;;;5093163;28;24784;-47
2022/07/12 03:47:31;;;;;;;3.90;2.50;;;;;;;;;;5096815;28;25158;-47
2022/07/12 03:49:56;;;;;;;2.58;2.38;;;;;;;;;;5095955;28;24418;-47
2022/07/12 03:52:21;;;;;;;2.80;2.60;;;;;;;;;;5093260;28;24488;-47
2022/07/12 03:54:47;;;;;;;2.50;2.30;;;;;;;;;;5098467;28;24436;-47
2022/07/12 03:57:15;;;;;;;2.60;2.40;;;;;;;;;;5102031;28;24794;-47
2022/07/12 03:59:40;;;;;;;2.60;2.40;;;;;;;;;;5099833;28;24422;-46
2022/07/12 04:02:05;;;;;;;2.20;2.10;;;;;;;;;;5095928;27;24426;-46
2022/07/12 04:04:30;;;;;;;2.60;2.40;;;;;;;;;;5109945;27;24421;-47
2022/07/12 04:06:55;;;;;;;3.58;2.20;;;;;;;;;;5095392;28;24437;-47
2022/07/12 04:09:21;;;;;;;2.53;2.33;;;;;;;;;;5099593;28;24473;-46
2022/07/12 04:11:46;;;;;;;2.40;2.20;;;;;;;;;;5102945;28;24492;-46
2022/07/12 04:14:11;;;;;;;2.60;2.40;;;;;;;;;;5101731;28;24776;-46
2022/07/12 04:16:36;;;;;;;2.60;2.40;;;;;;;;;;5095468;28;24510;-46
2022/07/12 04:19:02;;;;;;;2.30;2.20;;;;;;;;;;5091337;28;24430;-46
2022/07/12 04:21:27;;;;;;;3.80;2.75;;;;;;;;;;5093639;28;24445;-46
2022/07/12 04:23:52;;;;;;;2.22;2.03;;;;;;;;;;5096216;28;24960;-46
2022/07/12 04:26:24;;;;;;;2.35;2.15;;;;;;;;;;5096390;28;24433;-47
2022/07/12 04:28:49;;;;;;;2.60;2.40;;;;;;;;;;5101668;27;25084;-47
2022/07/12 04:31:14;;;;;;;2.35;2.15;;;;;;;;;;5105994;27;24512;-47
2022/07/12 04:33:39;;;;;;;2.37;2.23;;;;;;;;;;5098073;28;24898;-47
2022/07/12 04:36:04;;;;;;;2.50;2.30;;;;;;;;;;5103158;28;24413;-47
2022/07/12 04:38:29;;;;;;;2.60;2.40;;;;;;;;;;5104719;28;24425;-47
2022/07/12 04:40:55;;;;;;;2.50;2.30;;;;;;;;;;5098494;28;24433;-46
2022/07/12 04:43:20;;;;;;;2.75;2.50;;;;;;;;;;5103209;27;24524;-47
2022/07/12 04:45:45;;;;;;;2.67;2.25;;;;;;;;;;5102861;28;25052;-47
2022/07/12 04:48:10;;;;;;;2.75;2.55;;;;;;;;;;5089973;28;24439;-47
2022/07/12 04:50:36;;;;;;;2.60;2.40;;;;;;;;;;5083663;28;24458;-47
2022/07/12 04:53:01;;;;;;;3.60;2.30;;;;;;;;;;5084789;28;24774;-47
2022/07/12 04:55:26;;;;;;;2.10;2.00;;;;;;;;;;5068948;28;24414;-47
2022/07/12 04:57:51;;;;;;;2.20;2.10;;;;;;;;;;5069366;28;24465;-47
2022/07/12 05:00:16;;;;;;;3.60;2.72;;;;;;;;;;5072340;28;25331;-47
2022/07/12 05:02:41;;;;;;;3.10;2.80;;;;;;;;;;5079050;28;24498;-47
2022/07/12 05:05:07;;;;;;;3.10;2.50;;;;;;;;;;5070880;28;24506;-47
2022/07/12 05:07:32;;;;;;;3.42;2.20;;;;;;;;;;5070847;28;24492;-48
2022/07/12 05:09:57;;;;;;;2.30;2.10;;;;;;;;;;5067830;28;24484;-47
2022/07/12 05:12:23;;;;;;;2.30;2.10;;;;;;;;;;5072520;28;24433;-45
2022/07/12 05:14:48;;;;;;;2.97;2.00;;;;;;;;;;5079987;28;25203;-46
2022/07/12 05:17:13;;;;;;;2.20;2.10;;;;;;;;;;5072542;28;24407;-45
2022/07/12 05:19:38;;;;;;;2.60;2.20;;;;;;;;;;5078877;28;24418;-46
2022/07/12 05:22:03;;;;;;;2.35;2.15;;;;;;;;;;5064093;28;24440;-46
2022/07/12 05:24:29;;;;;;;2.43;2.20;;;;;;;;;;5075516;28;24405;-46
2022/07/12 05:26:54;;;;;;;2.70;2.35;;;;;;;;;;5067798;28;24457;-47
2022/07/12 05:29:19;;;;;;;3.10;2.60;;;;;;;;;;5068874;28;25054;-47
2022/07/12 05:31:44;;;;;;;2.50;2.30;;;;;;;;;;5073673;28;24557;-47
2022/07/12 05:34:09;;;;;;;2.97;2.60;;;;;;;;;;5064785;28;24431;-47
2022/07/12 05:36:34;;;;;;;4.65;2.80;;;;;;;;;;5085349;28;24430;-46
2022/07/12 05:39:00;;;;;;;2.90;2.70;;;;;;;;;;5072688;28;24777;-47
2022/07/12 05:41:25;;;;;;;3.10;2.90;;;;;;;;;;5064532;28;24458;-47
2022/07/12 05:43:50;;;;;;;4.20;3.53;;;;;;;;;;5072082;28;24436;-48
2022/07/12 05:46:15;;;;;;;2.70;2.50;;;;;;;;;;5065961;28;25031;-47
2022/07/12 05:48:40;;;;;;;2.30;2.20;;;;;;;;;;5079899;28;24466;-47
2022/07/12 05:53:49;;;;;;;2.90;2.33;;;;;;;;;;5082782;28;24425;-46
2022/07/12 05:56:14;;;;;;;2.70;2.50;;;;;;;;;;5091258;28;24761;-46
2022/07/12 05:58:40;;;;;;;2.33;2.13;;;;;;;;;;5089248;28;24470;-48
2022/07/12 06:01:05;;;;;;;2.60;2.40;;;;;;;;;;5087118;28;24876;-48
2022/07/12 06:03:31;;;;;;;2.90;2.70;;;;;;;;;;5095614;28;24414;-47
2022/07/12 06:05:56;;;;;;;5.03;4.63;;;;;;;;;;5085282;28;24418;-47
2022/07/12 06:08:21;;;;;;;4.50;4.23;;;;;;;;;;5091501;28;24421;-48
2022/07/12 06:10:46;;;;;;;3.88;3.60;;;;;;;;;;5088468;28;24422;-47
2022/07/12 06:13:11;;;;;;;5.18;4.88;;;;;;;;;;5101602;28;24467;-46
2022/07/12 06:15:37;;;;;;;3.70;3.50;;;;;;;;;;5095615;28;24420;-46
2022/07/12 06:18:02;;;;;;;4.50;4.10;;;;;;;;;;5091176;28;24516;-46
2022/07/12 06:20:27;;;;;;;3.75;3.55;;;;;;;;;;5096513;28;24429;-47
2022/07/12 06:22:52;;;;;;;4.70;4.30;;;;;;;;;;5100015;28;24428;-47
2022/07/12 06:25:18;;;;;;;4.90;4.50;;;;;;;;;;5106686;28;24550;-47
2022/07/12 06:27:43;;;;;;;4.78;4.47;;;;;;;;;;5119067;27;24397;-46
2022/07/12 06:30:08;;;;;;;4.40;4.10;;;;;;;;;;5094265;28;24523;-47
2022/07/12 06:32:33;;;;;;;4.60;4.20;;;;;;;;;;5092654;28;24430;-47
2022/07/12 06:34:58;;;;;;;4.25;3.95;;;;;;;;;;5123351;27;24433;-47
2022/07/12 06:37:24;;;;;;;4.40;4.10;;;;;;;;;;5118064;28;24489;-48
2022/07/12 06:39:49;;;;;;;5.33;4.93;;;;;;;;;;5103915;28;24931;-48
2022/07/12 06:42:14;;;;;;;4.32;4.03;;;;;;;;;;5088035;28;24839;-48
2022/07/12 06:44:39;;;;;;;4.80;4.50;;;;;;;;;;5086078;28;24928;-47
2022/07/12 06:47:04;;;;;;;3.95;3.65;;;;;;;;;;5096438;28;24413;-47
2022/07/12 06:49:29;;;;;;;5.43;5.03;;;;;;;;;;5106129;28;24429;-47
2022/07/12 06:51:54;;;;;;;4.50;4.10;;;;;;;;;;5105097;28;24840;-47
2022/07/12 06:54:20;;;;;;;4.80;4.40;;;;;;;;;;5105483;28;24437;-47
2022/07/12 06:56:45;;;;;;;5.20;4.80;;;;;;;;;;5100693;28;24583;-47
2022/07/12 06:59:10;;;;;;;4.60;4.30;;;;;;;;;;5111391;27;25175;-47
2022/07/12 07:01:36;;;;;;;4.20;3.90;;;;;;;;;;5092752;28;24438;-47
2022/07/12 07:04:01;;;;;;;4.20;3.80;;;;;;;;;;5105770;28;24787;-46
2022/07/12 07:06:26;;;;;;;5.03;4.63;;;;;;;;;;5085948;28;24826;-46
2022/07/12 07:08:51;;;;;;;4.57;4.27;;;;;;;;;;5086175;28;24456;-46
2022/07/12 07:11:16;;;;;;;4.93;4.50;;;;;;;;;;5104992;28;24946;-46
2022/07/12 07:13:42;;;;;;;5.17;4.70;;;;;;;;;;5109493;28;24466;-46
2022/07/12 07:16:07;;;;;;;5.13;4.60;;;;;;;;;;5096508;27;24848;-46
2022/07/12 07:18:32;;;;;;;5.30;4.90;;;;;;;;;;5099514;27;24409;-45
2022/07/12 07:20:58;;;;;;;4.70;4.30;;;;;;;;;;5092292;28;24820;-45
2022/07/12 07:23:23;;;;;;;5.80;5.40;;;;;;;;;;5109593;27;24449;-46
2022/07/12 07:25:48;;;;;;;5.10;4.70;;;;;;;;;;5108639;27;24508;-45
2022/07/12 07:28:13;;;;;;;5.70;5.30;;;;;;;;;;5100164;27;24502;-46
2022/07/12 07:30:53;;;;;;;5.07;4.67;;;;;;;;;;5093724;28;24417;-45
2022/07/12 07:33:22;;;;;;;5.05;4.65;;;;;;;;;;5098009;28;25318;-47
2022/07/12 07:35:47;;;;;;;4.90;4.50;;;;;;;;;;5092858;28;24780;-46
2022/07/12 07:38:13;;;;;;;4.70;4.30;;;;;;;;;;5115675;27;24939;-47
2022/07/12 07:40:38;;;;;;;4.55;4.25;;;;;;;;;;5102100;27;24463;-46
2022/07/12 07:43:03;;;;;;;4.80;4.50;;;;;;;;;;5101309;28;24997;-47
2022/07/12 07:45:28;;;;;;;4.80;4.40;;;;;;;;;;5097782;28;24424;-46
2022/07/12 07:47:53;;;;;;;4.30;4.00;;;;;;;;;;5097504;28;24495;-46
2022/07/12 07:50:19;;;;;;;4.00;3.60;;;;;;;;;;5107214;27;24422;-46
2022/07/12 07:52:45;;;;;;;3.83;3.53;;;;;;;;;;5105024;27;24982;-46
2022/07/12 07:55:10;;;;;;;4.40;4.00;;;;;;;;;;5106844;28;24478;-47
2022/07/12 07:57:35;;;;;;;4.28;3.88;;;;;;;;;;5097351;28;25307;-47
2022/07/12 08:00:00;;;;;;;3.90;3.60;;;;;;;;;;5106320;27;24421;-46
2022/07/12 08:02:26;;;;;;;4.00;3.63;;;;;;;;;;5098162;28;24424;-47
2022/07/12 08:04:51;;;;;;;4.20;3.90;;;;;;;;;;5099612;28;24429;-48
2022/07/12 08:07:17;;;;;;;3.40;3.10;;;;;;;;;;5092277;28;24417;-46
2022/07/12 08:09:42;;;;;;;3.97;3.67;;;;;;;;;;5092064;28;24414;-46
2022/07/12 08:12:07;;;;;;;3.50;3.30;;;;;;;;;;5089362;28;24421;-46
2022/07/12 08:14:32;;;;;;;3.27;3.00;;;;;;;;;;5095650;28;24436;-46
2022/07/12 08:16:57;;;;;;;3.47;3.17;;;;;;;;;;5105146;27;24409;-46
2022/07/12 08:19:22;;;;;;;3.50;3.10;;;;;;;;;;5099954;27;24419;-47
2022/07/12 08:21:48;;;;;;;3.20;3.00;;;;;;;;;;5100225;28;24974;-45
2022/07/12 08:24:13;;;;;;;2.90;2.70;;;;;;;;;;5104704;28;24519;-45
2022/07/12 08:26:39;;;;;;;3.30;3.00;;;;;;;;;;5094313;28;25203;-46
2022/07/12 08:29:04;;;;;;;3.28;2.97;;;;;;;;;;5100457;28;24991;-45
2022/07/12 08:31:30;;;;;;;4.50;2.80;;;;;;;;;;5089686;28;24471;-45
2022/07/12 08:33:55;;;;;;;3.58;3.28;;;;;;;;;;5106783;28;24420;-46
2022/07/12 08:36:20;;;;;;;3.67;3.38;;;;;;;;;;5097452;28;24418;-45
2022/07/12 08:38:45;;;;;;;3.90;3.60;;;;;;;;;;5100050;28;24414;-49
2022/07/12 08:41:11;;;;;;;2.80;2.60;;;;;;;;;;5103510;28;25077;-45
2022/07/12 08:43:36;;;;;;;3.00;2.80;;;;;;;;;;5099845;28;24414;-45
2022/07/12 08:46:05;;;;;;;4.03;3.27;;;;;;;;;;5106139;28;24420;-45
2022/07/12 08:48:30;;;;;;;4.30;2.80;;;;;;;;;;5103499;28;24449;-46
2022/07/12 08:51:08;;;;;;;3.00;2.80;;;;;;;;;;5108687;27;24393;-47
2022/07/12 08:53:34;;;;;;;2.20;2.10;;;;;;;;;;5107604;28;25245;-46
2022/07/12 08:55:59;;;;;;;2.67;2.40;;;;;;;;;;5102193;28;24513;-46
2022/07/12 08:58:25;;;;;;;2.33;2.13;;;;;;;;;;5098909;28;24414;-46
2022/07/12 09:00:50;;;;;;;2.53;2.33;;;;;;;;;;5094989;28;24820;-46
2022/07/12 09:03:16;;;;;;;2.20;2.00;;;;;;;;;;5106379;28;24803;-48
2022/07/12 09:05:49;;;;;;;2.30;2.10;;;;;;;;;;5102203;28;24496;-46
2022/07/12 09:08:14;;;;;;;2.17;1.93;;;;;;;;;;5094472;28;24979;-46
2022/07/12 09:10:48;;;;;;;2.58;1.90;;;;;;;;;;5102956;28;24982;-46
2022/07/12 09:13:14;;;;;;;1.92;1.83;;;;;;;;;;5087401;28;24434;-46
2022/07/12 09:15:39;;;;;;;4.05;1.80;;;;;;;;;;5103344;28;24432;-46
2022/07/12 09:18:12;;;;;;;1.90;1.80;;;;;;;;;;5100393;28;24494;-47
2022/07/12 09:20:37;;;;;;;2.00;1.90;;;;;;;;;;5100149;28;24466;-47
2022/07/12 09:23:04;;;;;;;1.70;1.60;;;;;;;;;;5100020;28;24422;-47
2022/07/12 09:25:31;;;;;;;2.30;1.55;;;;;;;;;;5102094;28;24543;-46
2022/07/12 09:27:57;;;;;;;1.70;1.60;;;;;;;;;;5105540;28;24418;-46
2022/07/12 09:30:25;;;;;;;1.50;1.40;;;;;;;;;;5100957;28;24486;-46
2022/07/12 09:38:19;;;;;;;1.40;1.30;;;;;;;;;;5101884;28;24420;-46
2022/07/12 09:40:44;;;;;;;2.33;1.40;;;;;;;;;;5102119;28;25075;-52
2022/07/12 09:43:10;;;;;;;1.23;1.20;;;;;;;;;;5106714;28;24398;-47
2022/07/12 09:45:36;;;;;;;1.55;1.45;;;;;;;;;;5106833;28;25014;-47
2022/07/12 09:48:02;;;;;;;1.60;1.50;;;;;;;;;;5104771;28;24689;-46
2022/07/12 09:50:29;;;;;;;1.47;1.10;;;;;;;;;;5103355;28;24421;-47
2022/07/12 09:52:57;;;;;;;2.33;1.40;;;;;;;;;;5099556;28;24442;-46
2022/07/12 09:55:24;;;;;;;2.03;1.38;;;;;;;;;;5106504;28;24502;-46
2022/07/12 09:57:53;;;;;;;1.40;1.30;;;;;;;;;;5097057;28;24437;-45
2022/07/12 10:00:18;;;;;;;1.80;1.20;;;;;;;;;;5097664;28;25059;-46
2022/07/12 10:02:44;;;;;;;1.20;1.10;;;;;;;;;;5106354;28;24432;-47
2022/07/12 10:05:10;;;;;;;1.40;1.20;;;;;;;;;;5105546;28;24425;-46
2022/07/12 10:07:37;;;;;;;1.13;1.03;;;;;;;;;;5101293;28;24422;-46
2022/07/12 10:10:02;;;;;;;1.30;1.20;;;;;;;;;;5097749;28;24520;-46
2022/07/12 10:12:27;;;;;;;3.00;1.33;;;;;;;;;;5106549;28;24846;-48
2022/07/12 10:15:01;;;;;;;1.90;1.10;;;;;;;;;;5110229;28;24433;-46
2022/07/12 10:17:27;;;;;;;1.70;1.15;;;;;;;;;;5105652;28;24430;-53
2022/07/12 10:20:13;;;;;;;1.27;0.90;;;;;;;;;;5103518;28;24422;-48
2022/07/12 10:22:38;;;;;;;2.10;1.30;;;;;;;;;;5106552;28;24429;-46
2022/07/12 10:25:03;;;;;;;2.10;1.40;;;;;;;;;;5107206;28;24491;-46
2022/07/12 10:27:30;;;;;;;1.30;1.20;;;;;;;;;;5106544;28;24424;-47
2022/07/12 10:30:12;;;;;;;1.70;1.17;;;;;;;;;;5104147;28;25047;-45
2022/07/12 10:32:40;;;;;;;1.48;1.00;;;;;;;;;;5094351;28;24512;-47
2022/07/12 10:35:07;;;;;;;2.58;1.10;;;;;;;;;;5094398;28;24537;-46
2022/07/12 10:37:33;;;;;;;1.20;1.10;;;;;;;;;;5098420;28;24409;-46
2022/07/12 10:40:15;;;;;;;0.82;0.80;;;;;;;;;;5102723;28;24456;-46
2022/07/12 10:42:41;;;;;;;1.38;1.15;;;;;;;;;;5102852;28;24502;-47
2022/07/12 10:45:13;;;;;;;2.15;1.20;;;;;;;;;;5109299;28;24425;-47
2022/07/12 10:47:54;;;;;;;0.82;0.82;;;;;;;;;;5109097;28;24425;-46
2022/07/12 10:50:19;;;;;;;2.80;1.58;;;;;;;;;;5107327;28;24418;-45
2022/07/12 10:52:44;;;;;;;3.50;2.10;;;;;;;;;;5107687;28;25051;-45
2022/07/12 10:55:10;;;;;;;2.40;1.00;;;;;;;;;;5109918;27;24498;-46
2022/07/12 10:57:43;;;;;;;1.10;1.00;;;;;;;;;;5107937;28;24425;-46
2022/07/12 11:00:09;;;;;;;1.03;0.83;;;;;;;;;;5107795;28;24413;-46
2022/07/12 11:02:34;;;;;;;1.30;1.10;;;;;;;;;;5099942;28;24418;-46
2022/07/12 11:04:59;;;;;;;0.60;0.60;;;;;;;;;;5103390;28;24640;-46
2022/07/12 11:07:25;;;;;;;1.50;1.07;;;;;;;;;;5108205;28;25006;-45
2022/07/12 11:09:53;;;;;;;0.90;0.80;;;;;;;;;;5104361;28;24851;-47
2022/07/12 11:12:18;;;;;;;1.00;0.80;;;;;;;;;;5094496;28;24426;-45
2022/07/12 11:14:45;;;;;;;0.93;0.90;;;;;;;;;;5103435;28;24985;-46
2022/07/12 11:17:10;;;;;;;1.25;0.80;;;;;;;;;;5110094;28;24401;-45
2022/07/12 11:19:35;;;;;;;0.80;0.80;;;;;;;;;;5106355;28;24397;-45
2022/07/12 11:22:00;;;;;;;1.10;0.90;;;;;;;;;;5091267;27;24394;-45
2022/07/12 11:24:27;;;;;;;1.00;0.88;;;;;;;;;;5107540;28;24428;-47
2022/07/12 11:26:52;;;;;;;0.90;0.80;;;;;;;;;;5109588;28;24425;-46
2022/07/12 11:29:18;;;;;;;1.30;0.90;;;;;;;;;;5100316;28;24507;-47
2022/07/12 11:31:44;;;;;;;1.00;0.90;;;;;;;;;;5104823;28;24428;-46
2022/07/12 11:34:22;;;;;;;1.30;0.90;;;;;;;;;;5101433;28;24475;-47
2022/07/12 11:36:50;;;;;;;0.90;0.80;;;;;;;;;;5099084;28;24413;-45
2022/07/12 11:39:15;;;;;;;2.10;0.80;;;;;;;;;;5109974;27;24394;-47
2022/07/12 11:41:53;;;;;;;1.20;0.80;;;;;;;;;;5109232;28;24396;-47
2022/07/12 11:44:19;;;;;;;1.00;0.70;;;;;;;;;;5100959;28;24484;-46
2022/07/12 11:46:49;;;;;;;0.98;0.80;;;;;;;;;;5101239;28;24525;-46
2022/07/12 11:49:14;;;;;;;1.40;0.70;;;;;;;;;;5097472;28;24993;-46
2022/07/12 11:51:40;;;;;;;1.40;0.90;;;;;;;;;;5109424;28;24394;-47
2022/07/12 11:54:05;;;;;;;0.90;0.70;;;;;;;;;;5094632;28;24765;-46
2022/07/12 11:56:33;;;;;;;0.80;0.80;;;;;;;;;;5093403;28;24465;-46
2022/07/12 11:58:58;;;;;;;1.80;0.80;;;;;;;;;;5095719;28;24567;-46
2022/07/12 12:01:25;;;;;;;1.50;0.60;;;;;;;;;;5089955;28;24537;-46
2022/07/12 12:03:51;;;;;;;0.98;0.98;;;;;;;;;;5098681;28;24532;-45
2022/07/12 12:06:17;;;;;;;1.00;0.80;;;;;;;;;;5097839;28;24429;-46
2022/07/12 12:08:42;;;;;;;0.90;0.80;;;;;;;;;;5102776;28;24429;-45
2022/07/12 12:11:07;;;;;;;1.00;0.90;;;;;;;;;;5102671;28;24428;-46
2022/07/12 12:13:32;;;;;;;1.13;0.90;;;;;;;;;;5105398;28;24462;-46
2022/07/12 12:15:59;;;;;;;1.30;1.00;;;;;;;;;;5102102;28;24467;-46
2022/07/12 12:18:32;;;;;;;1.15;1.00;;;;;;;;;;5099544;28;24422;-46
2022/07/12 12:21:00;;;;;;;1.47;0.90;;;;;;;;;;5101361;28;24704;-46
2022/07/12 12:23:26;;;;;;;1.40;0.90;;;;;;;;;;5103893;28;24459;-46
2022/07/12 12:25:51;;;;;;;1.10;1.00;;;;;;;;;;5102602;28;24434;-47
2022/07/12 12:28:16;;;;;;;1.00;0.82;;;;;;;;;;5100901;28;24623;-46
2022/07/12 12:30:50;;;;;;;1.50;0.90;;;;;;;;;;5089812;28;24446;-46
2022/07/12 12:33:33;;;;;;;1.90;0.70;;;;;;;;;;5100578;28;25004;-45
2022/07/12 12:36:10;;;;;;;0.90;0.80;;;;;;;;;;5103350;28;24506;-46
2022/07/12 12:38:35;;;;;;;0.90;0.90;;;;;;;;;;5096479;28;24418;-45
2022/07/12 12:41:01;;;;;;;1.40;0.90;;;;;;;;;;5098987;28;24444;-45
2022/07/12 12:43:26;;;;;;;0.80;0.73;;;;;;;;;;5101983;28;24405;-47
2022/07/12 12:45:52;;;;;;;0.90;0.80;;;;;;;;;;5101923;28;24962;-46
2022/07/12 12:48:18;;;;;;;1.00;0.80;;;;;;;;;;5103258;28;24433;-46
2022/07/12 12:50:44;;;;;;;1.40;0.90;;;;;;;;;;5100862;28;24425;-47
2022/07/12 12:53:23;;;;;;;1.20;0.90;;;;;;;;;;5101232;28;24974;-47
2022/07/12 12:55:49;;;;;;;0.70;0.70;;;;;;;;;;5097908;28;24596;-46
2022/07/12 12:58:15;;;;;;;0.90;0.90;;;;;;;;;;5101941;28;24833;-46
2022/07/12 13:00:42;;;;;;;1.00;0.90;;;;;;;;;;5096047;28;24422;-46
2022/07/12 13:03:08;;;;;;;1.08;0.77;;;;;;;;;;5102006;28;24425;-46
2022/07/12 13:05:33;;;;;;;1.00;1.00;;;;;;;;;;5101445;28;25219;-46
2022/07/12 13:07:59;;;;;;;1.10;1.00;;;;;;;;;;5099291;28;24424;-46
2022/07/12 13:10:24;;;;;;;1.07;0.80;;;;;;;;;;5101132;28;24429;-46
2022/07/12 13:12:50;;;;;;;0.90;0.90;;;;;;;;;;5092755;28;24453;-46
2022/07/12 13:15:15;;;;;;;1.20;1.00;;;;;;;;;;5102634;28;24490;-46
2022/07/12 13:17:41;;;;;;;1.20;1.10;;;;;;;;;;5097043;28;24958;-45
2022/07/12 13:20:08;;;;;;;1.98;1.30;;;;;;;;;;5096535;28;24938;-45
2022/07/12 13:22:34;;;;;;;0.90;0.90;;;;;;;;;;5102189;28;24409;-47
2022/07/12 13:24:59;;;;;;;0.90;0.90;;;;;;;;;;5102972;28;24432;-46
2022/07/12 13:27:26;;;;;;;0.80;0.80;;;;;;;;;;5100680;28;24420;-46
2022/07/12 13:29:51;;;;;;;1.60;0.80;;;;;;;;;;5093858;28;25018;-46
2022/07/12 13:32:17;;;;;;;1.10;1.00;;;;;;;;;;5101446;28;24398;-45
2022/07/12 13:34:42;;;;;;;2.22;0.88;;;;;;;;;;5089170;28;24469;-46
2022/07/12 13:37:07;;;;;;;1.10;1.00;;;;;;;;;;5101732;28;24425;-46
2022/07/12 13:42:16;;;;;;;1.00;0.90;;;;;;;;;;5096868;28;24436;-46
2022/07/12 13:44:44;;;;;;;1.48;1.20;;;;;;;;;;5104454;28;24521;-45
2022/07/12 13:47:09;;;;;;;1.70;1.00;;;;;;;;;;5090876;28;24422;-45
2022/07/12 13:49:34;;;;;;;1.80;1.20;;;;;;;;;;5106368;27;24448;-46
2022/07/12 13:52:01;;;;;;;1.20;1.10;;;;;;;;;;5115858;27;24421;-50
2022/07/12 13:54:26;;;;;;;1.23;1.10;;;;;;;;;;5111827;27;24616;-46
2022/07/12 13:56:52;;;;;;;1.30;1.20;;;;;;;;;;5104455;28;24560;-47
2022/07/12 13:59:17;;;;;;;1.15;1.05;;;;;;;;;;5102973;27;24409;-46
2022/07/12 14:01:43;;;;;;;0.83;0.83;;;;;;;;;;5106434;27;24420;-46
2022/07/12 14:04:09;;;;;;;1.10;1.00;;;;;;;;;;5106804;27;24656;-46
2022/07/12 14:06:34;;;;;;;1.50;1.10;;;;;;;;;;5105407;28;24494;-47
2022/07/12 14:08:59;;;;;;;1.00;0.90;;;;;;;;;;5096045;28;24417;-46
2022/07/12 14:11:25;;;;;;;1.50;1.20;;;;;;;;;;5085958;28;24394;-46
2022/07/12 14:13:50;;;;;;;1.00;1.00;;;;;;;;;;5105302;28;24421;-45
2022/07/12 14:16:15;;;;;;;0.80;0.80;;;;;;;;;;5095325;28;24448;-45
2022/07/12 14:18:40;;;;;;;1.50;1.20;;;;;;;;;;5111494;28;25238;-45
2022/07/12 14:21:06;;;;;;;1.20;1.10;;;;;;;;;;5104398;28;24498;-45
2022/07/12 14:23:31;;;;;;;1.00;1.00;;;;;;;;;;5104461;28;24429;-45
2022/07/12 14:25:57;;;;;;;1.30;1.20;;;;;;;;;;5106298;28;24942;-45
2022/07/12 14:28:22;;;;;;;1.40;1.30;;;;;;;;;;5101387;28;24429;-45
2022/07/12 14:30:47;;;;;;;1.40;1.10;;;;;;;;;;5120786;28;24405;-45
2022/07/12 14:33:12;;;;;;;1.10;1.00;;;;;;;;;;5107541;28;24797;-43
2022/07/12 14:35:37;;;;;;;0.90;0.90;;;;;;;;;;5113455;28;24459;-46
2022/07/12 14:38:02;;;;;;;1.00;0.90;;;;;;;;;;5090368;28;24402;-46
2022/07/12 14:40:27;;;;;;;1.17;1.07;;;;;;;;;;5120099;27;24977;-44
2022/07/12 14:42:56;;;;;;;1.87;0.90;;;;;;;;;;5105551;28;24397;-44
2022/07/12 14:45:21;;;;;;;0.90;0.90;;;;;;;;;;5105983;28;24439;-43
2022/07/12 14:47:48;;;;;;;1.13;1.02;;;;;;;;;;5103626;28;24460;-44